Terminal Aerodrome Forecast
Issued by NWS

Home | Current Version | Previous Version | Text Only | Print | Product List | Glossary Off
Versions: 1 2 3 4 5 6 7 8 9 10 11 12 13

000
FTUS43 KMPX 071100
TAFRNH
TAF
KRNH 071120Z 0712/0812 28004KT P6SM BKN150
     FM071500 27008KT P6SM SCT040 BKN080
      TEMPO 0722/0802 3SM -TSRA OVC025CB
     FM080200 29005KT P6SM -SHRA VCTS OVC040CB
     FM080600 28006KT P6SM SCT010=

USA.gov is the U.S. government's official web portal to all federal, state and local government web resources and services.